KHVE/HVE METAR and TAF weather

Enter ICAO airport designator
Station Type Date Time Source
KHVE METAR 2021/08/01 17:55 UTC NOAA

KHVE 011755Z AUTO 06004KT 10SM CLR 28/12 A3028 RMK AO2


Station Type Date Time Source
KHVE Decoded METAR 2021/08/01 17:55 UTC NOAA

Station name not available
Aug 01, 2021 - 01:55 PM EDT / 2021.08.01 1755 UTC
Wind: from the ENE (060 degrees) at 5 MPH (4 KT):0
Visibility: 10 mile(s):0
Sky conditions: clear
Temperature: 82 F (28 C)
Dew Point: 53 F (12 C)
Relative Humidity: 37%
Pressure (altimeter): 30.28 in. Hg (1025 hPa)
ob: KHVE 011755Z AUTO 06004KT 10SM CLR 28/12 A3028 RMK AO2
cycle: 18

Station Type Date Time Source
KHVE TAF UTC NOAA

Error!

Example: see airport list